sensor_id;sensor_type;location;lat;lon;timestamp;P1;durP1;ratioP1;P2;durP2;ratioP2
10511;SDS011;5304;48.604;2.096;2022-12-18T00:00:22;29.60;;;14.23;;
10511;SDS011;5304;48.604;2.096;2022-12-18T00:03:07;38.40;;;15.27;;
10511;SDS011;5304;48.604;2.096;2022-12-18T00:05:52;38.23;;;15.73;;
10511;SDS011;5304;48.604;2.096;2022-12-18T00:08:37;33.60;;;15.53;;
10511;SDS011;5304;48.604;2.096;2022-12-18T00:11:23;28.93;;;13.17;;
10511;SDS011;5304;48.604;2.096;2022-12-18T00:14:12;34.47;;;15.40;;
10511;SDS011;5304;48.604;2.096;2022-12-18T00:16:57;31.67;;;12.83;;
10511;SDS011;5304;48.604;2.096;2022-12-18T00:19:44;32.10;;;13.93;;
10511;SDS011;5304;48.604;2.096;2022-12-18T00:22:28;28.23;;;14.00;;
10511;SDS011;5304;48.604;2.096;2022-12-18T00:25:13;27.90;;;12.07;;
10511;SDS011;5304;48.604;2.096;2022-12-18T00:27:57;32.73;;;15.07;;
10511;SDS011;5304;48.604;2.096;2022-12-18T00:30:42;33.60;;;14.80;;
10511;SDS011;5304;48.604;2.096;2022-12-18T00:33:28;30.53;;;13.60;;
10511;SDS011;5304;48.604;2.096;2022-12-18T00:36:14;33.17;;;14.40;;
10511;SDS011;5304;48.604;2.096;2022-12-18T00:39:04;29.40;;;13.83;;
10511;SDS011;5304;48.604;2.096;2022-12-18T00:41:48;32.23;;;14.87;;
10511;SDS011;5304;48.604;2.096;2022-12-18T00:44:52;24.60;;;12.03;;
10511;SDS011;5304;48.604;2.096;2022-12-18T00:47:36;33.03;;;14.47;;
10511;SDS011;5304;48.604;2.096;2022-12-18T00:50:21;37.83;;;14.03;;
10511;SDS011;5304;48.604;2.096;2022-12-18T00:53:06;40.33;;;15.30;;
10511;SDS011;5304;48.604;2.096;2022-12-18T00:55:54;30.90;;;14.40;;
10511;SDS011;5304;48.604;2.096;2022-12-18T00:58:39;19.87;;;10.17;;
10511;SDS011;5304;48.604;2.096;2022-12-18T01:01:23;36.23;;;14.67;;
10511;SDS011;5304;48.604;2.096;2022-12-18T01:04:08;31.10;;;15.80;;
10511;SDS011;5304;48.604;2.096;2022-12-18T01:06:52;34.70;;;16.23;;
10511;SDS011;5304;48.604;2.096;2022-12-18T01:09:37;34.77;;;16.00;;
10511;SDS011;5304;48.604;2.096;2022-12-18T01:12:21;30.03;;;14.23;;
10511;SDS011;5304;48.604;2.096;2022-12-18T01:15:06;36.33;;;16.20;;
10511;SDS011;5304;48.604;2.096;2022-12-18T01:17:52;36.93;;;16.73;;
10511;SDS011;5304;48.604;2.096;2022-12-18T01:20:37;35.10;;;16.27;;
10511;SDS011;5304;48.604;2.096;2022-12-18T01:23:22;36.83;;;16.97;;
10511;SDS011;5304;48.604;2.096;2022-12-18T01:26:07;28.27;;;14.13;;
10511;SDS011;5304;48.604;2.096;2022-12-18T01:28:55;36.43;;;15.63;;
10511;SDS011;5304;48.604;2.096;2022-12-18T01:31:40;36.37;;;15.50;;
10511;SDS011;5304;48.604;2.096;2022-12-18T01:34:25;26.47;;;12.83;;
10511;SDS011;5304;48.604;2.096;2022-12-18T01:37:09;31.27;;;14.70;;
10511;SDS011;5304;48.604;2.096;2022-12-18T01:39:54;38.53;;;15.80;;
10511;SDS011;5304;48.604;2.096;2022-12-18T01:42:39;29.93;;;13.33;;
10511;SDS011;5304;48.604;2.096;2022-12-18T01:45:26;30.70;;;14.37;;
10511;SDS011;5304;48.604;2.096;2022-12-18T01:48:12;34.20;;;15.10;;
10511;SDS011;5304;48.604;2.096;2022-12-18T01:50:57;42.77;;;14.80;;
10511;SDS011;5304;48.604;2.096;2022-12-18T01:53:41;38.50;;;16.83;;
10511;SDS011;5304;48.604;2.096;2022-12-18T01:56:28;33.80;;;15.73;;
10511;SDS011;5304;48.604;2.096;2022-12-18T01:59:13;41.73;;;17.77;;
10511;SDS011;5304;48.604;2.096;2022-12-18T02:01:57;28.17;;;14.07;;
10511;SDS011;5304;48.604;2.096;2022-12-18T02:04:43;35.60;;;17.73;;
10511;SDS011;5304;48.604;2.096;2022-12-18T02:13:18;37.77;;;15.43;;
10511;SDS011;5304;48.604;2.096;2022-12-18T02:16:36;31.77;;;15.80;;
10511;SDS011;5304;48.604;2.096;2022-12-18T02:25:51;37.97;;;15.30;;
10511;SDS011;5304;48.604;2.096;2022-12-18T02:31:51;37.07;;;14.90;;
10511;SDS011;5304;48.604;2.096;2022-12-18T02:34:38;34.77;;;16.73;;
10511;SDS011;5304;48.604;2.096;2022-12-18T02:37:23;39.90;;;17.80;;
10511;SDS011;5304;48.604;2.096;2022-12-18T02:40:11;34.17;;;16.07;;
10511;SDS011;5304;48.604;2.096;2022-12-18T02:43:08;32.73;;;15.83;;
10511;SDS011;5304;48.604;2.096;2022-12-18T02:45:56;28.67;;;13.83;;
10511;SDS011;5304;48.604;2.096;2022-12-18T02:48:41;29.73;;;13.67;;
10511;SDS011;5304;48.604;2.096;2022-12-18T02:51:48;28.30;;;14.23;;
10511;SDS011;5304;48.604;2.096;2022-12-18T02:57:50;34.07;;;14.97;;
10511;SDS011;5304;48.604;2.096;2022-12-18T03:03:42;32.40;;;16.60;;
10511;SDS011;5304;48.604;2.096;2022-12-18T03:06:57;40.10;;;18.13;;
10511;SDS011;5304;48.604;2.096;2022-12-18T03:09:46;30.40;;;16.23;;
10511;SDS011;5304;48.604;2.096;2022-12-18T03:12:37;33.93;;;16.33;;
10511;SDS011;5304;48.604;2.096;2022-12-18T03:15:31;35.97;;;16.50;;
10511;SDS011;5304;48.604;2.096;2022-12-18T03:18:32;35.20;;;15.53;;
10511;SDS011;5304;48.604;2.096;2022-12-18T03:21:22;34.07;;;17.07;;
10511;SDS011;5304;48.604;2.096;2022-12-18T03:24:13;33.70;;;13.83;;
10511;SDS011;5304;48.604;2.096;2022-12-18T03:27:00;35.47;;;17.90;;
10511;SDS011;5304;48.604;2.096;2022-12-18T03:29:48;31.50;;;14.07;;
10511;SDS011;5304;48.604;2.096;2022-12-18T03:33:10;33.50;;;16.50;;
10511;SDS011;5304;48.604;2.096;2022-12-18T03:36:03;35.63;;;17.30;;
10511;SDS011;5304;48.604;2.096;2022-12-18T03:38:48;34.70;;;16.03;;
10511;SDS011;5304;48.604;2.096;2022-12-18T03:41:33;31.50;;;15.10;;
10511;SDS011;5304;48.604;2.096;2022-12-18T03:44:36;25.27;;;12.87;;
10511;SDS011;5304;48.604;2.096;2022-12-18T03:47:47;31.37;;;15.07;;
10511;SDS011;5304;48.604;2.096;2022-12-18T03:50:56;31.43;;;15.53;;
10511;SDS011;5304;48.604;2.096;2022-12-18T03:53:53;34.20;;;16.83;;
10511;SDS011;5304;48.604;2.096;2022-12-18T03:56:44;27.50;;;14.87;;
10511;SDS011;5304;48.604;2.096;2022-12-18T03:59:31;32.63;;;15.43;;
10511;SDS011;5304;48.604;2.096;2022-12-18T04:02:17;35.90;;;15.63;;
10511;SDS011;5304;48.604;2.096;2022-12-18T04:05:02;32.13;;;15.63;;
10511;SDS011;5304;48.604;2.096;2022-12-18T04:07:50;30.13;;;16.30;;
10511;SDS011;5304;48.604;2.096;2022-12-18T04:10:36;33.70;;;15.07;;
10511;SDS011;5304;48.604;2.096;2022-12-18T04:13:24;33.13;;;16.57;;
10511;SDS011;5304;48.604;2.096;2022-12-18T04:16:13;30.30;;;16.10;;
10511;SDS011;5304;48.604;2.096;2022-12-18T04:18:57;33.53;;;15.37;;
10511;SDS011;5304;48.604;2.096;2022-12-18T04:21:42;31.27;;;14.53;;
10511;SDS011;5304;48.604;2.096;2022-12-18T04:24:27;32.40;;;15.97;;
10511;SDS011;5304;48.604;2.096;2022-12-18T04:27:11;28.53;;;15.40;;
10511;SDS011;5304;48.604;2.096;2022-12-18T04:29:56;34.10;;;15.13;;
10511;SDS011;5304;48.604;2.096;2022-12-18T04:32:40;34.10;;;15.30;;
10511;SDS011;5304;48.604;2.096;2022-12-18T04:35:25;34.93;;;16.33;;
10511;SDS011;5304;48.604;2.096;2022-12-18T04:38:09;26.03;;;13.50;;
10511;SDS011;5304;48.604;2.096;2022-12-18T04:40:54;28.97;;;14.43;;
10511;SDS011;5304;48.604;2.096;2022-12-18T04:43:39;28.43;;;13.70;;
10511;SDS011;5304;48.604;2.096;2022-12-18T04:46:23;27.10;;;14.50;;
10511;SDS011;5304;48.604;2.096;2022-12-18T04:49:08;26.33;;;12.13;;
10511;SDS011;5304;48.604;2.096;2022-12-18T04:51:54;33.63;;;15.63;;
10511;SDS011;5304;48.604;2.096;2022-12-18T04:54:38;36.67;;;16.13;;
10511;SDS011;5304;48.604;2.096;2022-12-18T04:57:23;31.20;;;16.20;;
10511;SDS011;5304;48.604;2.096;2022-12-18T05:00:07;31.60;;;15.90;;
10511;SDS011;5304;48.604;2.096;2022-12-18T05:02:52;30.57;;;14.03;;
10511;SDS011;5304;48.604;2.096;2022-12-18T05:05:36;28.80;;;14.27;;
10511;SDS011;5304;48.604;2.096;2022-12-18T05:08:21;28.77;;;12.63;;
10511;SDS011;5304;48.604;2.096;2022-12-18T05:11:06;26.27;;;13.50;;
10511;SDS011;5304;48.604;2.096;2022-12-18T05:13:53;30.57;;;14.73;;
10511;SDS011;5304;48.604;2.096;2022-12-18T05:16:37;31.23;;;14.77;;
10511;SDS011;5304;48.604;2.096;2022-12-18T05:19:22;29.70;;;14.27;;
10511;SDS011;5304;48.604;2.096;2022-12-18T05:22:06;27.10;;;14.17;;
10511;SDS011;5304;48.604;2.096;2022-12-18T05:24:50;24.50;;;13.13;;
10511;SDS011;5304;48.604;2.096;2022-12-18T05:27:35;35.37;;;16.03;;
10511;SDS011;5304;48.604;2.096;2022-12-18T05:30:20;29.73;;;15.00;;
10511;SDS011;5304;48.604;2.096;2022-12-18T05:33:04;36.73;;;16.27;;
10511;SDS011;5304;48.604;2.096;2022-12-18T05:35:55;30.30;;;16.07;;
10511;SDS011;5304;48.604;2.096;2022-12-18T05:38:41;25.13;;;12.53;;
10511;SDS011;5304;48.604;2.096;2022-12-18T05:41:26;25.13;;;13.27;;
10511;SDS011;5304;48.604;2.096;2022-12-18T05:44:10;25.93;;;13.47;;
10511;SDS011;5304;48.604;2.096;2022-12-18T05:46:55;30.90;;;14.27;;
10511;SDS011;5304;48.604;2.096;2022-12-18T05:49:39;32.83;;;15.57;;
10511;SDS011;5304;48.604;2.096;2022-12-18T05:52:24;26.07;;;14.10;;
10511;SDS011;5304;48.604;2.096;2022-12-18T05:55:08;32.57;;;14.97;;
10511;SDS011;5304;48.604;2.096;2022-12-18T05:57:53;30.43;;;15.30;;
10511;SDS011;5304;48.604;2.096;2022-12-18T06:00:38;29.53;;;14.40;;
10511;SDS011;5304;48.604;2.096;2022-12-18T06:03:23;29.23;;;14.20;;
10511;SDS011;5304;48.604;2.096;2022-12-18T06:06:24;25.80;;;14.73;;
10511;SDS011;5304;48.604;2.096;2022-12-18T06:09:11;27.43;;;13.47;;
10511;SDS011;5304;48.604;2.096;2022-12-18T06:11:55;32.73;;;16.40;;
10511;SDS011;5304;48.604;2.096;2022-12-18T06:14:40;28.77;;;14.27;;
10511;SDS011;5304;48.604;2.096;2022-12-18T06:17:27;30.10;;;15.33;;
10511;SDS011;5304;48.604;2.096;2022-12-18T06:20:14;27.47;;;12.17;;
10511;SDS011;5304;48.604;2.096;2022-12-18T06:22:59;32.10;;;16.33;;
10511;SDS011;5304;48.604;2.096;2022-12-18T06:25:44;30.63;;;14.53;;
10511;SDS011;5304;48.604;2.096;2022-12-18T06:28:28;32.43;;;13.33;;
10511;SDS011;5304;48.604;2.096;2022-12-18T06:31:12;32.00;;;14.40;;
10511;SDS011;5304;48.604;2.096;2022-12-18T06:33:57;23.43;;;11.53;;
10511;SDS011;5304;48.604;2.096;2022-12-18T06:36:41;32.40;;;15.50;;
10511;SDS011;5304;48.604;2.096;2022-12-18T06:39:29;27.27;;;13.73;;
10511;SDS011;5304;48.604;2.096;2022-12-18T06:42:14;28.87;;;13.90;;
10511;SDS011;5304;48.604;2.096;2022-12-18T06:44:59;24.97;;;13.70;;
10511;SDS011;5304;48.604;2.096;2022-12-18T06:47:44;25.43;;;14.50;;
10511;SDS011;5304;48.604;2.096;2022-12-18T06:50:28;25.63;;;12.83;;
10511;SDS011;5304;48.604;2.096;2022-12-18T06:53:12;27.77;;;13.43;;
10511;SDS011;5304;48.604;2.096;2022-12-18T06:56:03;23.93;;;11.50;;
10511;SDS011;5304;48.604;2.096;2022-12-18T06:58:49;28.27;;;14.97;;
10511;SDS011;5304;48.604;2.096;2022-12-18T07:01:33;31.27;;;13.80;;
10511;SDS011;5304;48.604;2.096;2022-12-18T07:04:17;21.70;;;13.23;;
10511;SDS011;5304;48.604;2.096;2022-12-18T07:07:02;24.10;;;12.43;;
10511;SDS011;5304;48.604;2.096;2022-12-18T07:09:46;26.97;;;12.70;;
10511;SDS011;5304;48.604;2.096;2022-12-18T07:12:32;25.83;;;14.50;;
10511;SDS011;5304;48.604;2.096;2022-12-18T07:15:17;28.20;;;14.83;;
10511;SDS011;5304;48.604;2.096;2022-12-18T07:18:01;29.20;;;13.70;;
10511;SDS011;5304;48.604;2.096;2022-12-18T07:20:46;26.37;;;13.93;;
10511;SDS011;5304;48.604;2.096;2022-12-18T07:23:31;30.30;;;14.03;;
10511;SDS011;5304;48.604;2.096;2022-12-18T07:26:17;23.03;;;12.90;;
10511;SDS011;5304;48.604;2.096;2022-12-18T07:29:03;27.77;;;12.87;;
10511;SDS011;5304;48.604;2.096;2022-12-18T07:31:48;34.03;;;14.27;;
10511;SDS011;5304;48.604;2.096;2022-12-18T07:34:32;21.73;;;12.10;;
10511;SDS011;5304;48.604;2.096;2022-12-18T07:37:17;28.30;;;12.23;;
10511;SDS011;5304;48.604;2.096;2022-12-18T07:40:02;28.13;;;14.00;;
10511;SDS011;5304;48.604;2.096;2022-12-18T07:42:46;20.87;;;11.10;;
10511;SDS011;5304;48.604;2.096;2022-12-18T07:45:31;22.47;;;12.40;;
10511;SDS011;5304;48.604;2.096;2022-12-18T07:48:15;23.70;;;11.93;;
10511;SDS011;5304;48.604;2.096;2022-12-18T07:51:00;25.00;;;13.27;;
10511;SDS011;5304;48.604;2.096;2022-12-18T07:53:47;21.07;;;11.63;;
10511;SDS011;5304;48.604;2.096;2022-12-18T07:56:32;20.50;;;11.30;;
10511;SDS011;5304;48.604;2.096;2022-12-18T07:59:17;27.80;;;13.07;;
10511;SDS011;5304;48.604;2.096;2022-12-18T08:02:02;24.40;;;13.20;;
10511;SDS011;5304;48.604;2.096;2022-12-18T08:04:46;31.20;;;14.80;;
10511;SDS011;5304;48.604;2.096;2022-12-18T08:07:30;24.33;;;9.97;;
10511;SDS011;5304;48.604;2.096;2022-12-18T08:10:15;25.10;;;12.93;;
10511;SDS011;5304;48.604;2.096;2022-12-18T08:13:00;21.20;;;14.10;;
10511;SDS011;5304;48.604;2.096;2022-12-18T08:15:44;20.83;;;12.23;;
10511;SDS011;5304;48.604;2.096;2022-12-18T08:18:28;27.23;;;13.87;;
10511;SDS011;5304;48.604;2.096;2022-12-18T08:21:14;24.67;;;12.57;;
10511;SDS011;5304;48.604;2.096;2022-12-18T08:24:00;28.73;;;15.07;;
10511;SDS011;5304;48.604;2.096;2022-12-18T08:26:45;32.47;;;14.63;;
10511;SDS011;5304;48.604;2.096;2022-12-18T08:29:31;28.10;;;14.00;;
10511;SDS011;5304;48.604;2.096;2022-12-18T08:32:15;20.17;;;11.00;;
10511;SDS011;5304;48.604;2.096;2022-12-18T08:35:00;25.00;;;13.27;;
10511;SDS011;5304;48.604;2.096;2022-12-18T08:37:44;26.20;;;14.50;;
10511;SDS011;5304;48.604;2.096;2022-12-18T08:40:29;23.47;;;12.27;;
10511;SDS011;5304;48.604;2.096;2022-12-18T08:43:13;25.07;;;13.47;;
10511;SDS011;5304;48.604;2.096;2022-12-18T08:46:20;27.30;;;14.07;;
10511;SDS011;5304;48.604;2.096;2022-12-18T08:49:07;29.67;;;12.60;;
10511;SDS011;5304;48.604;2.096;2022-12-18T08:51:54;25.80;;;13.70;;
10511;SDS011;5304;48.604;2.096;2022-12-18T08:54:38;25.77;;;12.27;;
10511;SDS011;5304;48.604;2.096;2022-12-18T08:57:23;22.70;;;12.67;;
10511;SDS011;5304;48.604;2.096;2022-12-18T09:00:08;22.80;;;12.87;;
10511;SDS011;5304;48.604;2.096;2022-12-18T09:02:52;27.67;;;13.57;;
10511;SDS011;5304;48.604;2.096;2022-12-18T09:05:37;29.57;;;13.23;;
10511;SDS011;5304;48.604;2.096;2022-12-18T09:08:21;25.97;;;13.53;;
10511;SDS011;5304;48.604;2.096;2022-12-18T09:11:09;29.60;;;13.50;;
10511;SDS011;5304;48.604;2.096;2022-12-18T09:13:57;23.30;;;11.17;;
10511;SDS011;5304;48.604;2.096;2022-12-18T09:16:43;25.27;;;13.50;;
10511;SDS011;5304;48.604;2.096;2022-12-18T09:19:28;29.07;;;13.73;;
10511;SDS011;5304;48.604;2.096;2022-12-18T09:22:12;24.60;;;13.40;;
10511;SDS011;5304;48.604;2.096;2022-12-18T09:24:56;26.47;;;14.37;;
10511;SDS011;5304;48.604;2.096;2022-12-18T09:27:41;27.87;;;14.03;;
10511;SDS011;5304;48.604;2.096;2022-12-18T09:30:26;28.57;;;14.30;;
10511;SDS011;5304;48.604;2.096;2022-12-18T09:33:10;27.27;;;13.57;;
10511;SDS011;5304;48.604;2.096;2022-12-18T09:35:55;24.90;;;12.93;;
10511;SDS011;5304;48.604;2.096;2022-12-18T09:38:40;23.80;;;12.10;;
10511;SDS011;5304;48.604;2.096;2022-12-18T09:44:26;35.58;;;18.98;;
10511;SDS011;5304;48.604;2.096;2022-12-18T09:47:22;26.90;;;14.60;;
10511;SDS011;5304;48.604;2.096;2022-12-18T09:50:41;30.93;;;15.47;;
10511;SDS011;5304;48.604;2.096;2022-12-18T09:53:26;23.83;;;13.67;;
10511;SDS011;5304;48.604;2.096;2022-12-18T09:56:16;22.43;;;12.97;;
10511;SDS011;5304;48.604;2.096;2022-12-18T09:59:09;29.13;;;13.53;;
10511;SDS011;5304;48.604;2.096;2022-12-18T10:05:03;27.33;;;13.80;;
10511;SDS011;5304;48.604;2.096;2022-12-18T10:08:08;25.40;;;13.53;;
10511;SDS011;5304;48.604;2.096;2022-12-18T10:20:32;27.27;;;13.83;;
10511;SDS011;5304;48.604;2.096;2022-12-18T10:23:54;26.50;;;14.13;;
10511;SDS011;5304;48.604;2.096;2022-12-18T10:26:37;24.80;;;13.27;;
10511;SDS011;5304;48.604;2.096;2022-12-18T10:29:22;27.23;;;14.70;;
10511;SDS011;5304;48.604;2.096;2022-12-18T10:32:13;30.63;;;14.10;;
10511;SDS011;5304;48.604;2.096;2022-12-18T10:35:20;25.57;;;13.60;;
10511;SDS011;5304;48.604;2.096;2022-12-18T10:41:23;31.30;;;15.23;;
10511;SDS011;5304;48.604;2.096;2022-12-18T10:44:11;29.70;;;15.43;;
10511;SDS011;5304;48.604;2.096;2022-12-18T10:47:05;31.63;;;15.13;;
10511;SDS011;5304;48.604;2.096;2022-12-18T10:49:54;29.23;;;15.40;;
10511;SDS011;5304;48.604;2.096;2022-12-18T10:52:39;20.23;;;12.30;;
10511;SDS011;5304;48.604;2.096;2022-12-18T10:55:24;28.77;;;14.97;;
10511;SDS011;5304;48.604;2.096;2022-12-18T11:06:52;32.50;;;14.27;;
10511;SDS011;5304;48.604;2.096;2022-12-18T11:09:39;31.40;;;16.43;;
10511;SDS011;5304;48.604;2.096;2022-12-18T11:12:24;32.63;;;14.33;;
10511;SDS011;5304;48.604;2.096;2022-12-18T11:15:15;29.03;;;14.80;;
10511;SDS011;5304;48.604;2.096;2022-12-18T11:18:05;24.43;;;13.80;;
10511;SDS011;5304;48.604;2.096;2022-12-18T11:21:07;26.60;;;14.33;;
10511;SDS011;5304;48.604;2.096;2022-12-18T11:23:53;30.53;;;15.00;;
10511;SDS011;5304;48.604;2.096;2022-12-18T11:26:38;28.70;;;14.33;;
10511;SDS011;5304;48.604;2.096;2022-12-18T11:29:24;26.60;;;13.43;;
10511;SDS011;5304;48.604;2.096;2022-12-18T11:35:42;27.13;;;14.03;;
10511;SDS011;5304;48.604;2.096;2022-12-18T11:38:42;26.03;;;14.40;;
10511;SDS011;5304;48.604;2.096;2022-12-18T11:41:35;21.67;;;10.87;;
10511;SDS011;5304;48.604;2.096;2022-12-18T11:44:53;26.97;;;15.30;;
10511;SDS011;5304;48.604;2.096;2022-12-18T11:51:01;24.63;;;14.50;;
10511;SDS011;5304;48.604;2.096;2022-12-18T11:53:48;28.97;;;14.13;;
10511;SDS011;5304;48.604;2.096;2022-12-18T11:56:35;29.73;;;14.47;;
10511;SDS011;5304;48.604;2.096;2022-12-18T12:02:24;25.30;;;14.20;;
10511;SDS011;5304;48.604;2.096;2022-12-18T12:34:16;22.87;;;13.87;;
10511;SDS011;5304;48.604;2.096;2022-12-18T12:40:13;26.47;;;13.13;;
10511;SDS011;5304;48.604;2.096;2022-12-18T12:43:04;27.30;;;13.97;;
10511;SDS011;5304;48.604;2.096;2022-12-18T12:46:11;24.07;;;14.13;;
10511;SDS011;5304;48.604;2.096;2022-12-18T12:49:00;23.30;;;13.23;;
10511;SDS011;5304;48.604;2.096;2022-12-18T12:52:03;24.33;;;13.13;;
10511;SDS011;5304;48.604;2.096;2022-12-18T12:54:51;27.10;;;14.93;;
10511;SDS011;5304;48.604;2.096;2022-12-18T12:57:37;26.80;;;13.17;;
10511;SDS011;5304;48.604;2.096;2022-12-18T13:00:25;24.27;;;13.27;;
10511;SDS011;5304;48.604;2.096;2022-12-18T13:03:23;25.67;;;13.73;;
10511;SDS011;5304;48.604;2.096;2022-12-18T13:06:33;21.93;;;11.77;;
10511;SDS011;5304;48.604;2.096;2022-12-18T13:09:29;24.03;;;12.20;;
10511;SDS011;5304;48.604;2.096;2022-12-18T13:12:18;26.73;;;13.30;;
10511;SDS011;5304;48.604;2.096;2022-12-18T13:15:31;20.30;;;12.97;;
10511;SDS011;5304;48.604;2.096;2022-12-18T13:18:23;23.50;;;12.83;;
10511;SDS011;5304;48.604;2.096;2022-12-18T13:21:28;20.73;;;11.77;;
10511;SDS011;5304;48.604;2.096;2022-12-18T13:24:15;20.33;;;12.53;;
10511;SDS011;5304;48.604;2.096;2022-12-18T13:36:31;23.70;;;12.00;;
10511;SDS011;5304;48.604;2.096;2022-12-18T13:44:51;25.73;;;13.87;;
10511;SDS011;5304;48.604;2.096;2022-12-18T13:47:36;21.77;;;12.57;;
10511;SDS011;5304;48.604;2.096;2022-12-18T13:50:24;21.37;;;12.00;;
10511;SDS011;5304;48.604;2.096;2022-12-18T13:53:18;23.87;;;13.47;;
10511;SDS011;5304;48.604;2.096;2022-12-18T13:56:06;24.53;;;12.87;;
10511;SDS011;5304;48.604;2.096;2022-12-18T14:02:16;24.60;;;12.77;;
10511;SDS011;5304;48.604;2.096;2022-12-18T14:05:20;24.77;;;12.53;;
10511;SDS011;5304;48.604;2.096;2022-12-18T14:08:27;23.87;;;12.70;;
10511;SDS011;5304;48.604;2.096;2022-12-18T14:11:19;24.73;;;13.07;;
10511;SDS011;5304;48.604;2.096;2022-12-18T14:14:06;25.43;;;13.40;;
10511;SDS011;5304;48.604;2.096;2022-12-18T14:16:51;25.43;;;13.90;;
10511;SDS011;5304;48.604;2.096;2022-12-18T14:19:36;23.63;;;13.00;;
10511;SDS011;5304;48.604;2.096;2022-12-18T14:22:25;21.60;;;12.63;;
10511;SDS011;5304;48.604;2.096;2022-12-18T14:25:14;23.10;;;13.23;;
10511;SDS011;5304;48.604;2.096;2022-12-18T14:30:51;24.03;;;12.70;;
10511;SDS011;5304;48.604;2.096;2022-12-18T14:33:38;23.20;;;12.97;;
10511;SDS011;5304;48.604;2.096;2022-12-18T14:36:24;25.07;;;13.13;;
10511;SDS011;5304;48.604;2.096;2022-12-18T14:39:12;25.37;;;12.93;;
10511;SDS011;5304;48.604;2.096;2022-12-18T14:42:00;24.20;;;12.07;;
10511;SDS011;5304;48.604;2.096;2022-12-18T14:44:45;26.73;;;13.03;;
10511;SDS011;5304;48.604;2.096;2022-12-18T14:47:30;25.20;;;13.27;;
10511;SDS011;5304;48.604;2.096;2022-12-18T14:50:15;20.17;;;12.40;;
10511;SDS011;5304;48.604;2.096;2022-12-18T14:52:59;22.47;;;13.20;;
10511;SDS011;5304;48.604;2.096;2022-12-18T14:55:47;22.50;;;13.83;;
10511;SDS011;5304;48.604;2.096;2022-12-18T14:58:32;22.10;;;13.23;;
10511;SDS011;5304;48.604;2.096;2022-12-18T15:01:21;23.93;;;12.87;;
10511;SDS011;5304;48.604;2.096;2022-12-18T15:04:25;27.50;;;14.20;;
10511;SDS011;5304;48.604;2.096;2022-12-18T15:07:20;22.80;;;13.03;;
10511;SDS011;5304;48.604;2.096;2022-12-18T15:10:16;20.77;;;12.67;;
10511;SDS011;5304;48.604;2.096;2022-12-18T15:13:08;27.73;;;13.50;;
10511;SDS011;5304;48.604;2.096;2022-12-18T15:16:00;22.60;;;11.73;;
10511;SDS011;5304;48.604;2.096;2022-12-18T15:18:47;24.27;;;12.37;;
10511;SDS011;5304;48.604;2.096;2022-12-18T15:21:32;23.47;;;11.80;;
10511;SDS011;5304;48.604;2.096;2022-12-18T15:24:24;22.30;;;12.30;;
10511;SDS011;5304;48.604;2.096;2022-12-18T15:27:21;24.77;;;12.80;;
10511;SDS011;5304;48.604;2.096;2022-12-18T15:30:20;19.47;;;11.87;;
10511;SDS011;5304;48.604;2.096;2022-12-18T15:33:25;23.17;;;13.27;;
10511;SDS011;5304;48.604;2.096;2022-12-18T15:36:14;20.87;;;12.43;;
10511;SDS011;5304;48.604;2.096;2022-12-18T15:38:59;22.90;;;12.67;;
10511;SDS011;5304;48.604;2.096;2022-12-18T15:41:44;25.03;;;13.27;;
10511;SDS011;5304;48.604;2.096;2022-12-18T15:44:49;24.50;;;13.20;;
10511;SDS011;5304;48.604;2.096;2022-12-18T15:47:34;24.57;;;12.90;;
10511;SDS011;5304;48.604;2.096;2022-12-18T15:50:18;20.77;;;12.63;;
10511;SDS011;5304;48.604;2.096;2022-12-18T15:53:03;26.50;;;12.70;;
10511;SDS011;5304;48.604;2.096;2022-12-18T15:55:47;22.27;;;12.80;;
10511;SDS011;5304;48.604;2.096;2022-12-18T15:58:50;22.67;;;12.70;;
10511;SDS011;5304;48.604;2.096;2022-12-18T16:01:35;22.60;;;12.23;;
10511;SDS011;5304;48.604;2.096;2022-12-18T16:04:20;26.77;;;13.33;;
10511;SDS011;5304;48.604;2.096;2022-12-18T16:07:05;24.10;;;13.10;;
10511;SDS011;5304;48.604;2.096;2022-12-18T16:09:50;27.33;;;14.03;;
10511;SDS011;5304;48.604;2.096;2022-12-18T16:12:35;22.57;;;12.50;;
10511;SDS011;5304;48.604;2.096;2022-12-18T16:15:20;42.43;;;20.63;;
10511;SDS011;5304;48.604;2.096;2022-12-18T16:18:05;24.60;;;12.00;;
10511;SDS011;5304;48.604;2.096;2022-12-18T16:20:49;22.27;;;12.33;;
10511;SDS011;5304;48.604;2.096;2022-12-18T16:23:34;23.93;;;13.33;;
10511;SDS011;5304;48.604;2.096;2022-12-18T16:26:18;23.50;;;12.67;;
10511;SDS011;5304;48.604;2.096;2022-12-18T16:29:02;22.50;;;13.10;;
10511;SDS011;5304;48.604;2.096;2022-12-18T16:31:47;22.47;;;12.60;;
10511;SDS011;5304;48.604;2.096;2022-12-18T16:34:32;20.77;;;12.07;;
10511;SDS011;5304;48.604;2.096;2022-12-18T16:37:18;23.60;;;11.70;;
10511;SDS011;5304;48.604;2.096;2022-12-18T16:40:02;26.47;;;13.27;;
10511;SDS011;5304;48.604;2.096;2022-12-18T16:42:47;20.53;;;11.90;;
10511;SDS011;5304;48.604;2.096;2022-12-18T16:45:32;22.03;;;12.20;;
10511;SDS011;5304;48.604;2.096;2022-12-18T16:48:16;24.47;;;12.20;;
10511;SDS011;5304;48.604;2.096;2022-12-18T16:51:01;27.17;;;12.90;;
10511;SDS011;5304;48.604;2.096;2022-12-18T16:53:47;23.90;;;12.50;;
10511;SDS011;5304;48.604;2.096;2022-12-18T16:56:32;24.87;;;13.17;;
10511;SDS011;5304;48.604;2.096;2022-12-18T16:59:17;23.63;;;12.53;;
10511;SDS011;5304;48.604;2.096;2022-12-18T17:02:02;22.73;;;11.33;;
10511;SDS011;5304;48.604;2.096;2022-12-18T17:04:48;27.33;;;14.50;;
10511;SDS011;5304;48.604;2.096;2022-12-18T17:07:36;21.53;;;13.10;;
10511;SDS011;5304;48.604;2.096;2022-12-18T17:10:20;24.77;;;12.17;;
10511;SDS011;5304;48.604;2.096;2022-12-18T17:13:05;22.37;;;12.03;;
10511;SDS011;5304;48.604;2.096;2022-12-18T17:15:49;24.20;;;12.83;;
10511;SDS011;5304;48.604;2.096;2022-12-18T17:18:34;23.27;;;12.30;;
10511;SDS011;5304;48.604;2.096;2022-12-18T17:21:19;21.17;;;11.57;;
10511;SDS011;5304;48.604;2.096;2022-12-18T17:24:03;21.37;;;11.53;;
10511;SDS011;5304;48.604;2.096;2022-12-18T17:26:48;24.07;;;11.97;;
10511;SDS011;5304;48.604;2.096;2022-12-18T17:29:32;21.43;;;11.30;;
10511;SDS011;5304;48.604;2.096;2022-12-18T17:32:17;23.20;;;11.37;;
10511;SDS011;5304;48.604;2.096;2022-12-18T17:35:01;20.70;;;11.33;;
10511;SDS011;5304;48.604;2.096;2022-12-18T17:37:46;21.83;;;11.80;;
10511;SDS011;5304;48.604;2.096;2022-12-18T17:40:32;23.17;;;11.67;;
10511;SDS011;5304;48.604;2.096;2022-12-18T17:43:16;17.70;;;10.63;;
10511;SDS011;5304;48.604;2.096;2022-12-18T17:46:01;21.43;;;10.47;;
10511;SDS011;5304;48.604;2.096;2022-12-18T17:48:46;20.63;;;10.80;;
10511;SDS011;5304;48.604;2.096;2022-12-18T17:51:31;22.53;;;12.03;;
10511;SDS011;5304;48.604;2.096;2022-12-18T17:54:15;18.13;;;10.90;;
10511;SDS011;5304;48.604;2.096;2022-12-18T17:57:00;20.33;;;12.77;;
10511;SDS011;5304;48.604;2.096;2022-12-18T17:59:45;19.40;;;10.47;;
10511;SDS011;5304;48.604;2.096;2022-12-18T18:02:30;20.80;;;10.73;;
10511;SDS011;5304;48.604;2.096;2022-12-18T18:05:15;18.03;;;10.97;;
10511;SDS011;5304;48.604;2.096;2022-12-18T18:07:59;20.43;;;11.07;;
10511;SDS011;5304;48.604;2.096;2022-12-18T18:10:44;23.30;;;13.60;;
10511;SDS011;5304;48.604;2.096;2022-12-18T18:13:31;16.97;;;10.53;;
10511;SDS011;5304;48.604;2.096;2022-12-18T18:16:42;17.90;;;10.67;;
10511;SDS011;5304;48.604;2.096;2022-12-18T18:19:28;20.10;;;11.50;;
10511;SDS011;5304;48.604;2.096;2022-12-18T18:22:13;18.07;;;10.27;;
10511;SDS011;5304;48.604;2.096;2022-12-18T18:24:57;17.37;;;9.73;;
10511;SDS011;5304;48.604;2.096;2022-12-18T18:27:42;17.97;;;9.20;;
10511;SDS011;5304;48.604;2.096;2022-12-18T18:30:26;19.93;;;11.10;;